.
WxDataArchive / Data Records for 2014-03-10
2014-03-09 March 2014 2014-03-11

Data Records for Monday, 10 March 2014

Time	Temp	Chill	HIndex	Humid	Dewpt	 Wind 	HiWind	WindDir	Rain 	Barom
-----	----	-----	------	-----	-----	------	------	-------	-----	-----
00:00	36.8	36.8	36.8	71	28.3	1	6	248	0.00	29.908 
00:05	36.8	36.8	36.8	71	28.3	1	4	248	0.00	29.908 
00:10	36.8	36.8	36.8	71	28.3	1	5	248	0.00	29.908 
00:15	36.8	36.8	36.8	71	28.3	1	3	248	0.00	29.911 
00:20	36.9	36.9	36.9	71	28.4	1	6	248	0.00	29.911 
00:25	36.9	36.9	36.9	70	28.0	1	4	248	0.00	29.911 
00:30	36.9	36.9	36.9	70	28.0	1	3	248	0.00	29.907 
00:35	36.9	36.9	36.9	70	28.0	1	5	248	0.00	29.907 
00:40	36.9	36.9	36.9	70	28.0	1	5	248	0.00	29.907 
00:45	37.0	37.0	37.0	70	28.1	1	4	248	0.00	29.908 
00:50	37.0	37.0	37.0	70	28.1	1	5	248	0.00	29.908 
00:55	36.9	36.9	36.9	71	28.4	1	9	248	0.00	29.908 
01:00	36.9	36.9	36.9	71	28.4	1	4	248	0.00	29.893 
01:05	36.9	36.9	36.9	71	28.4	1	4	248	0.00	29.893 
01:10	36.9	36.9	36.9	72	28.7	1	4	248	0.00	29.893 
01:15	36.9	36.9	36.9	72	28.7	1	6	248	0.00	29.889 
01:20	36.9	36.9	36.9	72	28.7	1	5	248	0.00	29.889 
01:25	36.8	36.8	36.8	73	29.0	1	5	270	0.00	29.889 
01:30	36.8	36.8	36.8	73	29.0	1	4	248	0.00	29.882 
01:35	36.8	36.8	36.8	73	29.0	1	4	248	0.00	29.882 
01:40	36.8	36.8	36.8	73	29.0	1	4	248	0.00	29.882 
01:45	36.9	36.9	36.9	73	29.1	1	4	270	0.00	29.874 
01:50	36.9	36.9	36.9	73	29.1	1	4	270	0.00	29.874 
01:55	36.9	36.9	36.9	74	29.4	1	3	270	0.00	29.874 
02:00	36.8	36.8	36.8	74	29.3	1	5	270	0.00	29.870 
02:05	36.8	36.8	36.8	74	29.3	1	4	248	0.00	29.870 
02:10	36.8	36.8	36.8	74	29.3	1	4	248	0.00	29.870 
02:15	36.8	36.8	36.8	75	29.6	2	7	248	0.00	29.859 
02:20	36.8	36.8	36.8	75	29.6	1	5	248	0.00	29.859 
02:25	36.8	36.8	36.8	75	29.6	1	4	248	0.00	29.859 
02:30	36.8	36.8	36.8	75	29.6	2	5	248	0.00	29.856 
02:35	36.8	36.8	36.8	75	29.6	1	4	248	0.00	29.856 
02:40	36.6	36.6	36.6	76	29.8	1	5	248	0.00	29.856 
02:45	36.6	36.6	36.6	76	29.8	0	2	248	0.00	29.852 
02:50	36.5	36.5	36.5	76	29.7	0	2	248	0.00	29.852 
02:55	36.5	36.5	36.5	77	30.0	1	4	248	0.00	29.852 
03:00	36.5	36.5	36.5	77	30.0	1	4	248	0.00	29.842 
03:05	36.6	36.6	36.6	77	30.1	1	4	248	0.00	29.842 
03:10	36.6	36.6	36.6	77	30.1	1	5	248	0.00	29.842 
03:15	36.6	36.6	36.6	77	30.1	1	4	225	0.00	29.836 
03:20	36.8	36.8	36.8	77	30.3	1	10	248	0.00	29.836 
03:25	36.8	36.8	36.8	77	30.3	1	6	248	0.00	29.836 
03:30	36.8	36.8	36.8	77	30.3	1	4	248	0.00	29.824 
03:35	36.8	36.8	36.8	77	30.3	1	3	248	0.00	29.824 
03:40	36.8	36.8	36.8	77	30.3	1	3	248	0.00	29.824 
03:45	36.8	36.8	36.8	77	30.3	1	4	248	0.00	29.817 
03:50	36.8	36.8	36.8	77	30.3	1	4	248	0.00	29.817 
03:55	36.8	36.8	36.8	77	30.3	1	6	248	0.00	29.817 
04:00	36.8	36.8	36.8	77	30.3	1	4	248	0.00	29.806 
04:05	36.9	36.9	36.9	77	30.4	1	4	248	0.00	29.806 
04:10	36.9	36.9	36.9	77	30.4	1	4	248	0.00	29.806 
04:15	36.9	36.9	36.9	77	30.4	1	4	248	0.00	29.794 
04:20	36.8	36.8	36.8	77	30.3	1	4	248	0.00	29.794 
04:25	36.8	36.8	36.8	77	30.3	1	3	248	0.00	29.794 
04:30	36.9	36.9	36.9	77	30.4	1	4	248	0.00	29.789 
04:35	36.9	36.9	36.9	77	30.4	1	3	248	0.00	29.789 
04:40	36.9	36.9	36.9	77	30.4	1	3	248	0.00	29.789 
04:45	37.0	37.0	37.0	77	30.5	1	5	248	0.00	29.783 
04:50	37.0	37.0	37.0	77	30.5	1	5	248	0.00	29.783 
04:55	37.2	37.2	37.2	77	30.7	1	5	248	0.00	29.783 
05:00	37.2	37.2	37.2	76	30.3	1	6	248	0.00	29.779 
05:05	37.3	37.3	37.3	76	30.4	1	4	248	0.00	29.779 
05:10	37.3	37.3	37.3	76	30.4	1	5	225	0.00	29.779 
05:15	37.5	37.5	37.5	76	30.6	1	5	248	0.00	29.775 
05:20	37.6	37.6	37.6	76	30.7	1	5	248	0.00	29.775 
05:25	37.8	37.8	37.8	75	30.6	1	5	248	0.00	29.775 
05:30	37.9	37.9	37.9	75	30.7	1	4	248	0.00	29.775 
05:35	38.0	38.0	38.0	75	30.8	1	4	248	0.00	29.775 
05:40	38.2	38.2	38.2	74	30.7	2	7	248	0.00	29.775 
05:45	38.3	38.3	38.3	74	30.8	1	6	248	0.00	29.773 
05:50	38.3	38.3	38.3	73	30.4	1	5	248	0.00	29.773 
05:55	38.3	38.3	38.3	73	30.4	2	9	248	0.00	29.773 
06:00	38.5	38.5	38.5	73	30.6	2	7	248	0.00	29.765 
06:05	38.5	38.5	38.5	73	30.6	2	5	248	0.00	29.765 
06:10	38.5	38.5	38.5	73	30.6	1	5	248	0.00	29.765 
06:15	38.6	38.6	38.6	73	30.7	2	5	248	0.00	29.766 
06:20	38.6	38.6	38.6	73	30.7	2	5	248	0.00	29.766 
06:25	38.8	38.8	38.8	73	30.9	1	5	248	0.00	29.766 
06:30	38.9	38.9	38.9	73	31.0	2	5	248	0.00	29.762 
06:35	38.9	38.9	38.9	72	30.7	2	7	248	0.00	29.762 
06:40	39.1	39.1	39.1	72	30.8	2	10	248	0.00	29.762 
06:45	39.2	39.2	39.2	72	30.9	2	5	248	0.00	29.763 
06:50	39.3	39.3	39.3	71	30.7	2	4	248	0.00	29.763 
06:55	39.5	39.5	39.5	71	30.9	2	10	248	0.00	29.763 
07:00	39.5	39.5	39.5	71	30.9	1	5	248	0.00	29.760 
07:05	39.5	39.5	39.5	71	30.9	2	4	248	0.00	29.760 
07:10	39.5	39.5	39.5	71	30.9	2	9	248	0.00	29.760 
07:15	39.5	39.5	39.5	71	30.9	1	3	248	0.00	29.762 
07:20	39.6	39.6	39.6	71	31.0	1	5	248	0.00	29.762 
07:25	39.6	39.6	39.6	70	30.6	2	6	248	0.00	29.762 
07:30	39.8	39.8	39.8	70	30.8	2	6	248	0.00	29.773 
07:35	39.9	39.9	39.9	70	30.9	2	5	248	0.00	29.773 
07:40	40.1	40.1	40.1	69	30.8	2	5	248	0.00	29.773 
07:45	40.2	40.2	40.2	69	30.9	2	5	248	0.00	29.773 
07:50	40.3	40.3	40.3	69	31.0	2	5	248	0.00	29.773 
07:55	40.5	40.5	40.5	69	31.1	2	6	248	0.00	29.773 
08:00	40.5	40.5	40.5	69	31.1	2	7	248	0.00	29.761 
08:05	40.6	40.6	40.6	69	31.2	3	12	248	0.00	29.761 
08:10	40.6	40.6	40.6	68	30.9	2	5	248	0.00	29.761 
08:15	40.6	40.6	40.6	69	31.2	2	6	248	0.00	29.756 
08:20	40.5	40.5	40.5	69	31.1	2	7	248	0.00	29.756 
08:25	40.6	40.6	40.6	69	31.2	2	6	248	0.00	29.756 
08:30	40.6	40.6	40.6	69	31.2	1	3	248	0.00	29.753 
08:35	40.6	40.6	40.6	69	31.2	1	5	225	0.00	29.753 
08:40	40.6	40.6	40.6	69	31.2	2	7	248	0.00	29.753 
08:45	40.6	40.6	40.6	69	31.2	1	5	248	0.00	29.748 
08:50	40.6	40.6	40.6	69	31.2	1	4	248	0.00	29.748 
08:55	40.6	40.6	40.6	69	31.2	1	3	248	0.00	29.748 
09:00	40.8	40.8	40.8	69	31.4	2	4	248	0.00	29.771 
09:05	40.8	40.8	40.8	69	31.4	1	4	248	0.00	29.771 
09:10	41.1	41.1	41.1	68	31.4	1	4	248	0.00	29.771 
09:15	41.1	41.1	41.1	68	31.4	1	4	248	0.00	29.770 
09:20	41.2	41.2	41.2	68	31.5	1	3	248	0.00	29.770 
09:25	41.3	41.3	41.3	68	31.5	1	4	248	0.00	29.770 
09:30	41.5	41.5	41.5	67	31.4	2	5	270	0.00	29.772 
09:35	41.5	41.5	41.5	67	31.4	1	4	248	0.00	29.772 
09:40	41.6	41.6	41.6	67	31.5	2	5	248	0.00	29.772 
09:45	41.8	41.8	41.8	66	31.3	2	5	248	0.00	29.769 
09:50	41.9	41.9	41.9	66	31.4	1	4	248	0.00	29.769 
09:55	42.2	42.2	42.2	65	31.3	2	5	248	0.00	29.769 
10:00	42.3	42.3	42.3	65	31.4	1	4	248	0.00	29.769 
10:05	42.6	42.6	42.6	65	31.7	1	4	248	0.00	29.769 
10:10	42.9	42.9	42.9	64	31.6	2	7	248	0.00	29.769 
10:15	43.1	40.9	43.1	63	31.4	4	11	248	0.00	29.759 
10:20	43.3	43.3	43.3	63	31.6	3	7	248	0.00	29.759 
10:25	43.8	43.8	43.8	62	31.6	2	7	248	0.00	29.759 
10:30	44.1	44.1	44.1	62	31.9	2	7	248	0.00	29.761 
10:35	44.2	44.2	44.2	61	31.6	2	7	248	0.00	29.761 
10:40	44.2	44.2	44.2	61	31.6	2	6	248	0.00	29.761 
10:45	44.1	44.1	44.1	61	31.5	2	5	248	0.00	29.761 
10:50	44.2	44.2	44.2	61	31.6	2	6	248	0.00	29.761 
10:55	44.2	44.2	44.2	61	31.6	3	7	248	0.00	29.761 
11:00	44.2	44.2	44.2	61	31.6	3	6	248	0.00	29.765 
11:05	44.5	44.5	44.5	61	31.9	2	9	248	0.00	29.765 
11:10	44.8	44.8	44.8	60	31.8	2	5	248	0.00	29.765 
11:15	45.2	45.2	45.2	59	31.7	3	6	248	0.00	29.755 
11:20	45.4	45.4	45.4	59	31.9	1	5	225	0.00	29.755 
11:25	45.5	45.5	45.5	59	32.0	1	4	248	0.00	29.755 
11:30	45.7	45.7	45.7	58	31.8	2	5	248	0.00	29.757 
11:35	45.7	45.7	45.7	59	32.2	2	5	248	0.00	29.757 
11:40	45.5	45.5	45.5	59	32.0	3	7	248	0.00	29.757 
11:45	45.5	45.5	45.5	59	32.0	2	6	248	0.00	29.756 
11:50	46.0	46.0	46.0	58	32.1	2	7	248	0.00	29.756 
11:55	46.2	46.2	46.2	58	32.2	3	7	248	0.00	29.756 
12:00	46.2	46.2	46.2	58	32.2	3	5	248	0.00	29.750 
12:05	46.4	46.4	46.4	58	32.4	3	6	248	0.00	29.750 
12:10	46.8	46.8	46.8	57	32.4	3	7	248	0.00	29.750 
12:15	47.1	47.1	47.1	57	32.7	3	7	248	0.00	29.750 
12:20	47.6	47.6	47.6	55	32.2	3	7	248	0.00	29.750 
12:25	47.6	47.6	47.6	55	32.2	3	6	248	0.00	29.750 
12:30	47.7	47.7	47.7	55	32.3	2	5	248	0.00	29.743 
12:35	48.0	48.0	48.0	55	32.6	2	7	248	0.00	29.743 
12:40	48.5	48.5	48.5	54	32.6	2	5	248	0.00	29.743 
12:45	48.6	48.6	48.6	54	32.7	3	7	248	0.00	29.735 
12:50	48.8	48.8	48.8	54	32.9	2	7	248	0.00	29.735 
12:55	49.1	49.1	49.1	54	33.2	2	5	248	0.00	29.735 
13:00	49.6	49.6	49.6	53	33.2	1	5	248	0.00	29.735 
13:05	49.8	49.8	49.8	53	33.4	2	7	248	0.00	29.735 
13:10	49.8	49.8	49.8	52	32.9	3	9	248	0.00	29.735 
13:15	49.8	49.8	49.8	53	33.4	2	7	248	0.00	29.733 
13:20	49.9	49.9	49.9	53	33.5	2	5	248	0.00	29.733 
13:25	50.1	50.1	50.1	53	33.6	2	5	248	0.00	29.733 
13:30	50.1	50.1	50.1	53	33.6	2	8	248	0.00	29.732 
13:35	50.2	50.2	50.2	53	33.7	2	9	248	0.00	29.732 
13:40	50.4	50.4	50.4	52	33.4	2	5	248	0.00	29.732 
13:45	50.5	50.5	50.5	52	33.5	2	6	248	0.00	29.718 
13:50	50.5	50.5	50.5	52	33.5	2	7	248	0.00	29.718 
13:55	50.7	50.7	50.7	52	33.7	2	6	248	0.00	29.718 
14:00	50.8	50.8	50.8	52	33.8	2	7	270	0.00	29.716 
14:05	51.0	51.0	51.0	52	34.0	2	5	248	0.00	29.716 
14:10	51.0	51.0	51.0	52	34.0	2	6	248	0.00	29.716 
14:15	51.3	51.3	51.3	52	34.3	1	4	248	0.00	29.700 
14:20	51.6	51.6	51.6	52	34.6	2	5	248	0.00	29.700 
14:25	51.7	51.7	51.7	52	34.6	2	7	248	0.00	29.700 
14:30	51.7	51.7	51.7	52	34.6	2	6	248	0.00	29.687 
14:35	51.6	51.6	51.6	52	34.6	2	7	248	0.00	29.687 
14:40	51.7	51.7	51.7	52	34.6	2	7	248	0.00	29.687 
14:45	51.9	51.9	51.9	52	34.8	2	8	248	0.00	29.685 
14:50	52.0	52.0	52.0	52	34.9	3	8	248	0.00	29.685 
14:55	52.2	52.2	52.2	52	35.1	2	7	248	0.00	29.685 
15:00	52.2	52.2	52.2	53	35.6	3	9	248	0.00	29.671 
15:05	52.5	52.5	52.5	52	35.4	2	6	248	0.00	29.671 
15:10	52.6	52.6	52.6	52	35.5	3	7	248	0.00	29.671 
15:15	52.8	52.8	52.8	53	36.1	3	8	248	0.00	29.666 
15:20	52.9	52.9	52.9	53	36.2	2	5	248	0.00	29.666 
15:25	53.2	53.2	53.2	53	36.5	2	4	248	0.00	29.666 
15:30	53.3	53.3	53.3	53	36.6	2	8	270	0.00	29.665 
15:35	53.3	53.3	53.3	54	37.1	2	9	248	0.00	29.665 
15:40	53.2	53.2	53.2	54	37.0	2	7	270	0.00	29.665 
15:45	53.1	53.1	53.1	55	37.4	2	5	248	0.00	29.655 
15:50	53.3	53.3	53.3	55	37.5	2	6	225	0.00	29.655 
15:55	53.6	53.6	53.6	55	37.8	2	6	248	0.00	29.655 
16:00	53.8	53.8	53.8	55	38.0	2	7	248	0.00	29.659 
16:05	53.8	53.8	53.8	55	38.0	2	7	248	0.00	29.659 
16:10	53.9	53.9	53.9	55	38.1	2	7	248	0.00	29.659 
16:15	53.9	53.9	53.9	55	38.1	3	6	248	0.00	29.655 
16:20	54.2	54.2	54.2	55	38.4	2	6	248	0.00	29.655 
16:25	54.5	54.5	54.5	54	38.2	1	6	248	0.00	29.655 
16:30	54.7	54.7	54.7	53	37.9	2	5	248	0.00	29.662 
16:35	55.0	55.0	55.0	53	38.2	1	4	248	0.00	29.662 
16:40	55.0	55.0	55.0	52	37.7	2	5	248	0.00	29.662 
16:45	54.7	54.7	54.7	53	37.9	2	6	270	0.00	29.666 
16:50	54.4	54.4	54.4	54	38.1	2	7	248	0.00	29.666 
16:55	54.2	54.2	54.2	54	37.9	2	7	248	0.00	29.666 
17:00	54.1	54.1	54.1	55	38.3	2	7	248	0.00	29.662 
17:05	54.1	54.1	54.1	55	38.3	1	6	248	0.00	29.662 
17:10	54.1	54.1	54.1	55	38.3	2	7	248	0.00	29.662 
17:15	54.1	54.1	54.1	55	38.3	2	9	248	0.00	29.654 
17:20	53.9	53.9	53.9	56	38.6	2	5	248	0.00	29.654 
17:25	53.9	53.9	53.9	57	39.0	2	5	248	0.00	29.654 
17:30	53.9	53.9	53.9	57	39.0	3	7	248	0.00	29.651 
17:35	53.9	53.9	53.9	57	39.0	2	6	248	0.00	29.651 
17:40	53.9	53.9	53.9	57	39.0	2	6	248	0.00	29.651 
17:45	53.8	53.8	53.8	58	39.4	1	6	270	0.00	29.651 
17:50	53.8	53.8	53.8	58	39.4	2	6	248	0.00	29.651 
17:55	53.9	53.9	53.9	58	39.5	1	6	248	0.00	29.651 
18:00	53.8	53.8	53.8	58	39.4	3	10	248	0.00	29.651 
18:05	53.6	53.6	53.6	58	39.2	2	6	248	0.00	29.651 
18:10	53.5	53.5	53.5	58	39.1	2	7	248	0.00	29.651 
18:15	53.5	53.5	53.5	59	39.5	2	5	248	0.00	29.649 
18:20	53.3	53.3	53.3	59	39.3	1	4	248	0.00	29.649 
18:25	53.2	53.2	53.2	59	39.2	1	4	248	0.00	29.649 
18:30	53.2	53.2	53.2	59	39.2	1	7	248	0.00	29.652 
18:35	53.1	53.1	53.1	59	39.2	1	5	248	0.00	29.652 
18:40	52.9	52.9	52.9	60	39.4	1	3	248	0.00	29.652 
18:45	52.8	52.8	52.8	61	39.7	1	3	248	0.00	29.661 
18:50	52.5	52.5	52.5	61	39.4	1	4	248	0.00	29.661 
18:55	52.3	52.3	52.3	61	39.3	1	4	270	0.00	29.661 
19:00	52.2	52.2	52.2	62	39.6	1	3	270	0.00	29.661 
19:05	52.2	52.2	52.2	62	39.6	1	6	248	0.00	29.661 
19:10	52.0	52.0	52.0	62	39.4	1	3	248	0.00	29.661 
19:15	51.6	51.6	51.6	62	39.0	0	3	248	0.00	29.666 
19:20	51.3	51.3	51.3	62	38.7	0	2	248	0.00	29.666 
19:25	51.0	51.0	51.0	64	39.3	1	3	248	0.00	29.666 
19:30	50.8	50.8	50.8	64	39.1	0	2	248	0.00	29.668 
19:35	50.4	50.4	50.4	64	38.7	0	2	248	0.00	29.668 
19:40	50.2	50.2	50.2	65	38.9	0	3	248	0.00	29.668 
19:45	49.9	49.9	49.9	65	38.6	0	2	248	0.00	29.668 
19:50	49.8	49.8	49.8	66	38.9	0	2	248	0.00	29.668 
19:55	49.5	49.5	49.5	66	38.6	0	2	248	0.00	29.668 
20:00	49.2	49.2	49.2	67	38.7	0	2	248	0.00	29.670 
20:05	49.1	49.1	49.1	68	39.0	0	2	248	0.00	29.670 
20:10	48.9	48.9	48.9	68	38.8	0	2	248	0.00	29.670 
20:15	48.6	48.6	48.6	69	38.9	0	1	248	0.00	29.670 
20:20	48.3	48.3	48.3	69	38.6	0	1	248	0.00	29.670 
20:25	47.9	47.9	47.9	70	38.6	0	3	248	0.00	29.670 
20:30	47.7	47.7	47.7	71	38.8	0	2	248	0.00	29.682 
20:35	47.4	47.4	47.4	72	38.8	0	2	248	0.00	29.682 
20:40	47.3	47.3	47.3	72	38.7	0	2	248	0.00	29.682 
20:45	47.1	47.1	47.1	72	38.5	0	1	248	0.00	29.684 
20:50	47.1	47.1	47.1	73	38.9	0	2	248	0.00	29.684 
20:55	47.1	47.1	47.1	73	38.9	0	2	248	0.00	29.684 
21:00	47.1	47.1	47.1	73	38.9	0	2	248	0.00	29.686 
21:05	47.0	47.0	47.0	73	38.8	0	3	248	0.00	29.686 
21:10	46.8	46.8	46.8	73	38.6	0	1	248	0.00	29.686 
21:15	46.7	46.7	46.7	73	38.5	0	2	248	0.00	29.688 
21:20	46.7	46.7	46.7	74	38.9	0	2	248	0.00	29.688 
21:25	46.5	46.5	46.5	74	38.7	0	1	248	0.00	29.688 
21:30	46.2	46.2	46.2	74	38.4	0	0	---	0.00	29.693 
21:35	46.1	46.1	46.1	75	38.6	0	0	---	0.00	29.693 
21:40	45.8	45.8	45.8	75	38.3	0	0	---	0.00	29.693 
21:45	45.5	45.5	45.5	76	38.4	0	1	248	0.00	29.701 
21:50	45.2	45.2	45.2	76	38.1	0	0	---	0.00	29.701 
21:55	44.8	44.8	44.8	77	38.0	0	0	---	0.00	29.701 
22:00	44.3	44.3	44.3	77	37.6	0	0	---	0.00	29.701 
22:05	43.9	43.9	43.9	77	37.2	0	0	---	0.00	29.701 
22:10	43.6	43.6	43.6	79	37.5	0	0	---	0.00	29.701 
22:15	43.3	43.3	43.3	79	37.2	0	0	---	0.00	29.700 
22:20	42.8	42.8	42.8	79	36.7	0	0	---	0.00	29.700 
22:25	42.3	42.3	42.3	79	36.3	0	0	---	0.00	29.700 
22:30	41.9	41.9	41.9	80	36.2	0	0	---	0.00	29.699 
22:35	41.6	41.6	41.6	81	36.2	0	0	---	0.00	29.699 
22:40	41.6	41.6	41.6	83	36.8	0	0	---	0.00	29.699 
22:45	41.9	41.9	41.9	84	37.4	0	1	248	0.00	29.690 
22:50	42.8	42.8	42.8	85	38.6	0	2	248	0.00	29.690 
22:55	43.5	43.5	43.5	84	39.0	0	2	248	0.00	29.690 
23:00	44.1	44.1	44.1	84	39.6	0	1	248	0.00	29.688 
23:05	44.2	44.2	44.2	83	39.4	0	1	248	0.00	29.688 
23:10	44.3	44.3	44.3	83	39.5	0	1	248	0.00	29.688 
23:15	44.3	44.3	44.3	82	39.2	0	1	248	0.00	29.685 
23:20	44.3	44.3	44.3	82	39.2	0	1	248	0.00	29.685 
23:25	44.3	44.3	44.3	82	39.2	0	1	248	0.00	29.685 
23:30	44.2	44.2	44.2	82	39.1	0	1	248	0.00	29.686 
23:35	44.2	44.2	44.2	82	39.1	0	1	248	0.00	29.686 
23:40	44.2	44.2	44.2	82	39.1	0	1	248	0.00	29.686 
23:45	44.1	44.1	44.1	82	39.0	0	1	248	0.00	29.684 
23:50	43.8	43.8	43.8	82	38.7	0	1	248	0.00	29.684 
23:55	43.5	43.5	43.5	82	38.4	0	1	248	0.00	29.684 

CoCoRaHS
IN-AL-39
A2 Web Hosting
Creative Commons License
GoDaddy
search engine by freefind advanced

loaded 2018-11-19 19:58:06 • last modified 2010-11-18 10:43:29
Privacy PolicyDisclaimer
• wx.awcolley.com is powered by PmWiki v.2002016 •
• all content (unless otherwise noted) © 2018 A W Colley